To NAV CANADA Home Page Login to a new session Search on AWWS site Disclaimer Vers la page française équivalente Tips FAQ What's new on the site To the Forecasts and Observations / NOTAM section To "File a Flight Plan" website Publications and other links Update of the User's profile FIC Telephone Numbers My Weather Data Folder Route Weather Data Regional Weather Data Local Weather Data To the Forecasts and Observations / NOTAM section
Request Generated 10/19/2018 at 15:57:47 UTC . Weather information available at that time is displayed.

METAR/TAF

QUAQTAQ/QC    

METAR CYHA 191500Z 30010KT 15SM VCSH FEW021 M05/M08 A2977 RMK SC2 VIS NE 3 -SN SLP086=
METAR CYHA 191400Z 30011KT 15SM VCSH BKN020 M05/M09 A2978 RMK SC5 VIS N 3 -SN SLP088=
SPECI CYHA 191326Z 34011KT 15SM VCSH BKN022 M05/M07 A2978 RMK SC6 WSHFT 1311 VIS N 3 -SN SLP090=
METAR CYHA 191300Z 31010KT 15SM VCSH BKN018 M05/M08 A2978 RMK SC6 VIS N 3 -SN SLP090=

TAF CYHA 191338Z 1914/1921 30010KT P6SM SCT015 TEMPO 1914/1917 5SM
-SN BKN015
RMK NXT FCST WILL BE ISSUED AT 201345Z=
Your time UTC time
Weather data provided by Environment Canada and NAV CANADA